Meteo Giornale » Osservazioni meteo Russia » Chita
ore: 10:30 - Osservazioni Meteo Chita
Lat. 52° 5' N Lon. 113° 29' E Alt. 685 metri s.l.m.
13 °C
Sereno
Temp. 24 Ore
4 °C
23 °C
Nord-Est
10.8 Km/h
Dew point 8 °C
Umidità 71 %
Visibilità 10 Km
Il sole sorge alle ore 06:37
Il sole tramonta alle ore 20:14
| Data e Ora | Cielo e Fenomeni | T °C | DP °C | Um. % | Pres. hPa | Vis. km | Vento km/h | |
|---|---|---|---|---|---|---|---|---|
| Oggi h: 10:30 | Sereno | 13 | 8 | 71 | 1020 | 10 | NE 10.8 | |
| Oggi h: 10:00 | Sereno | 12 | 8 | 76 | 1020 | 10 | E/NE 10.8 | |
| Oggi h: 09:30 | Sereno | 11 | 7 | 76 | 1020 | 10 | NE 10.8 | |
| Oggi h: 09:00 | Sereno | 9 | 7 | 87 | 1020 | 10 | N 7.2 | |
| Oggi h: 08:30 | Sereno | 8 | 6 | 87 | 1020 | 10 | N 7.2 | |
| Oggi h: 08:00 | Nebbia nelle vicinanze | 7 | 6 | 93 | 1020 | 10 | N 3.6 | |
| Oggi h: 07:30 | Nebbia nelle vicinanze | 5 | 4 | 93 | 1020 | 10 | N 7.2 | |
| Oggi h: 07:00 | Nebbia nelle vicinanze | 5 | 4 | 93 | 1020 | 10 | N 7.2 | |
| Oggi h: 06:30 | Nebbia nelle vicinanze | 5 | 4 | 93 | 1020 | 10 | N 7.2 | |
| Oggi h: 06:00 | Nebbia nelle vicinanze | 4 | 3 | 93 | 1020 | 10 | N 0 | |
| Oggi h: 05:30 | Poco Nuvoloso | 5 | 4 | 93 | 1020 | 10 | N 0 | |
| Oggi h: 05:00 | Sereno | 5 | 4 | 93 | 1020 | 10 | N 7.2 | |
| Oggi h: 04:30 | Sereno | 6 | 5 | 93 | 1020 | 10 | N 7.2 | |
| Oggi h: 04:00 | Sereno | 6 | 5 | 93 | 1020 | 10 | N 3.6 | |
| Oggi h: 03:30 | Sereno | 6 | 5 | 93 | 1020 | 10 | N 7.2 | |
| Oggi h: 03:00 | Sereno | 6 | 5 | 93 | 1020 | 10 | N 7.2 | |
| Oggi h: 02:30 | Sereno | 6 | 5 | 93 | 1020 | 10 | N 7.2 | |
| Oggi h: 02:00 | Sereno | 5 | 4 | 93 | 1020 | 10 | N 3.6 | |
| Oggi h: 01:30 | Sereno | 5 | 4 | 93 | 1020 | 10 | N 7.2 | |
| Oggi h: 01:00 | Sereno | 6 | 4 | 86 | 1020 | 10 | N 7.2 | |
| Oggi h: 00:30 | Sereno | 7 | 5 | 87 | 1020 | 10 | N 7.2 | |
| Oggi h: 00:00 | Sereno | 7 | 5 | 87 | 1020 | 10 | N 3.6 | |
| Ieri h: 23:30 | Sereno | 7 | 5 | 87 | 1020 | 10 | N 7.2 | |
| Ieri h: 23:00 | Sereno | 8 | 6 | 87 | 1020 | 10 | N 7.2 | |
| Ieri h: 22:30 | Sereno | 8 | 6 | 87 | 1019 | 10 | N 7.2 | |
| Ieri h: 22:00 | Sereno | 9 | 6 | 81 | 1019 | 10 | N 7.2 | |
| Ieri h: 21:30 | Sereno | 10 | 7 | 81 | 1019 | 10 | O/NO 10.8 | |
| Ieri h: 21:00 | Sereno | 10 | 8 | 87 | 1019 | 10 | O/NO 10.8 | |
| Ieri h: 20:30 | Sereno | 14 | 8 | 67 | 1019 | 10 | N 0 | |
| Ieri h: 20:00 | Sereno | 19 | 7 | 45 | 1018 | 10 | N 3.6 | |
| Ieri h: 19:30 | Sereno | 21 | 7 | 40 | 1018 | 10 | N 3.6 | |
| Ieri h: 19:00 | Sereno | 21 | 6 | 37 | 1018 | 10 | N 7.2 | |
| Ieri h: 18:30 | Sereno | 22 | 5 | 32 | 1018 | 10 | N 7.2 | |
| Ieri h: 18:00 | Sereno | 22 | 3 | 28 | 1018 | 10 | S 10.8 | |
| Ieri h: 17:30 | Sereno | 23 | 5 | 31 | 1018 | 10 | S 10.8 | |
| Ieri h: 17:00 | Sereno | 23 | 4 | 28 | 1018 | 10 | S 10.8 | |
| Ieri h: 16:30 | Sereno | 22 | 6 | 35 | 1018 | 10 | N 3.6 | |
| Ieri h: 16:00 | Sereno | 22 | 6 | 35 | 1019 | 10 | N 3.6 | |
| Ieri h: 15:30 | Sereno | 22 | 5 | 32 | 1019 | 10 | N 3.6 | |
| Ieri h: 15:00 | Sereno | 21 | 6 | 37 | 1019 | 10 | N 3.6 | |
| Ieri h: 14:30 | Sereno | 21 | 5 | 35 | 1020 | 10 | N 3.6 | |
| Ieri h: 14:00 | Sereno | 20 | 7 | 42 | 1020 | 10 | N 3.6 | |
| Ieri h: 13:30 | Sereno | 19 | 9 | 52 | 1020 | 10 | N 0 | |
| Ieri h: 13:00 | Sereno | 18 | 9 | 55 | 1020 | 10 | N 3.6 | |
| Ieri h: 12:30 | Sereno | 16 | 9 | 63 | 1021 | 10 | N 0 | |
| Ieri h: 12:00 | Sereno | 14 | 9 | 71 | 1021 | 10 | N 0 | |



